Mesa.AZweather.com - Mesa, AZ
   Red Mountain Frwy and University Dr., El 1518 ft.
      --- Thursday  August 4, 2022 ---
 
 High Temperature ..  95F at 13:39
 Low Temperature ...  74F at 05:09
 
 High Humidity .....  80% at 04:47
 Low Humidity ......  34% at 16:06
 
 High Barometer ....  30.01 at 09:55
 Low Barometer .....  29.85 at 01:12
 
 High Dew Point ....  69F at 04:01
 Low Dew Point .....  59F at 17:54
 
 Rainfall Total ....  0.17 in.
 
 High Wind Speed ...  ---
                     
 
 Time   Temp  Humi  Rain     Baro  DewPt  Wind
00:00,  86F, 43%, 0.00 in, 29.87, 61F, ---
00:30,  86F, 43%, 0.00 in, 29.88, 61F, ---
01:00,  87F, 41%, 0.00 in, 29.86, 61F, ---
01:30,  87F, 39%, 0.00 in, 29.86, 60F, ---
02:00,  87F, 39%, 0.00 in, 29.86, 60F, ---
02:30,  88F, 40%, 0.00 in, 29.87, 60F, ---
03:00,  88F, 40%, 0.00 in, 29.89, 60F, ---
03:30,  88F, 40%, 0.00 in, 29.91, 60F, ---
04:00,  82F, 62%, 0.06 in, 29.97, 68F, ---
04:30,  76F, 74%, 0.07 in, 29.98, 66F, ---
05:00,  75F, 79%, 0.11 in, 29.99, 68F, ---
05:30,  74F, 79%, 0.13 in, 29.98, 66F, ---
06:00,  74F, 79%, 0.15 in, 29.99, 66F, ---
06:30,  74F, 79%, 0.16 in, 29.96, 66F, ---
07:00,  74F, 80%, 0.17 in, 29.96, 67F, ---
07:30,  75F, 77%, 0.17 in, 29.95, 67F, ---
08:00,  76F, 75%, 0.17 in, 29.97, 67F, ---
08:30,  75F, 78%, 0.17 in, 29.99, 68F, ---
09:00,  75F, 78%, 0.17 in, 29.98, 68F, ---
09:30,  78F, 69%, 0.17 in, 29.99, 68F, ---
10:00,  80F, 66%, 0.17 in, 30.00, 68F, ---
10:30,  82F, 57%, 0.17 in, 30.01, 66F, ---
11:00,  85F, 52%, 0.17 in, 30.00, 65F, ---
11:30,  87F, 48%, 0.17 in, 30.00, 66F, ---
12:00,  89F, 44%, 0.17 in, 30.00, 65F, ---
12:30,  91F, 42%, 0.17 in, 29.98, 65F, ---
13:00,  92F, 40%, 0.17 in, 29.97, 64F, ---
13:30,  94F, 37%, 0.17 in, 29.96, 63F, ---
14:00,  94F, 36%, 0.17 in, 29.95, 62F, ---
14:30,  95F, 37%, 0.17 in, 29.94, 65F, ---
15:00,  94F, 36%, 0.17 in, 29.93, 62F, ---
15:30,  94F, 37%, 0.17 in, 29.92, 63F, ---
16:00,  93F, 35%, 0.17 in, 29.92, 61F, ---
16:30,  93F, 35%, 0.17 in, 29.90, 61F, ---
17:00,  93F, 35%, 0.17 in, 29.90, 61F, ---
17:30,  92F, 35%, 0.17 in, 29.89, 60F, ---
18:00,  91F, 35%, 0.17 in, 29.89, 60F, ---
18:30,  91F, 37%, 0.17 in, 29.89, 61F, ---
19:00,  89F, 40%, 0.17 in, 29.89, 62F, ---
19:30,  87F, 46%, 0.17 in, 29.89, 64F, ---
20:00,  86F, 47%, 0.17 in, 29.91, 63F, ---
20:30,  85F, 49%, 0.17 in, 29.94, 63F, ---
21:00,  84F, 50%, 0.17 in, 29.94, 64F, ---
21:30,  84F, 51%, 0.17 in, 29.94, 64F, ---
22:00,  84F, 51%, 0.17 in, 29.96, 64F, ---
22:30,  83F, 49%, 0.17 in, 29.95, 61F, ---
23:00,  82F, 50%, 0.17 in, 29.95, 62F, ---
23:30,  81F, 53%, 0.17 in, 29.95, 62F, ---
23:59,  80F, 53%, 0.17 in, 29.95, 62F, ---